Terminal Aerodrome Forecast
Issued by NWS North Platte, NE

Home | Current Version | Previous Version | Text Only | Print | Product List | Glossary On
Versions: 1 2 3 4 5 6 7 8 9 10 11 12 13 14
000
FTUS43 KLBF 041725
TAFVTN
TAF
KVTN 041725Z 0418/0518 13012KT P6SM OVC100
      TEMPO 0419/0423 5SM -TSRA BKN050CB
     FM050200 15006KT P6SM BKN250=

USA.gov is the U.S. government's official web portal to all federal, state and local government web resources and services.